createdAt,value
2023-02-03T00:00:32.007Z,3.30
2023-02-03T00:03:17.743Z,3.30
2023-02-03T00:06:05.056Z,3.30
2023-02-03T00:08:54.912Z,3.20
2023-02-03T00:11:40.203Z,3.10
2023-02-03T00:14:25.850Z,3.20
2023-02-03T00:17:11.305Z,3.40
2023-02-03T00:19:56.760Z,3.60
2023-02-03T00:22:42.179Z,4.30
2023-02-03T00:25:27.767Z,3.50
2023-02-03T00:28:13.415Z,3.60
2023-02-03T00:30:58.600Z,3.50
2023-02-03T00:33:44.188Z,3.50
2023-02-03T00:36:29.665Z,3.50
2023-02-03T00:39:16.274Z,3.40
2023-02-03T00:42:01.632Z,3.30
2023-02-03T00:44:46.999Z,3.40
2023-02-03T00:47:32.588Z,3.50
2023-02-03T00:50:18.210Z,3.50
2023-02-03T00:53:03.539Z,3.50
2023-02-03T00:55:49.072Z,3.70
2023-02-03T00:58:34.666Z,3.70
2023-02-03T01:01:20.243Z,3.60
2023-02-03T01:04:05.808Z,3.60
2023-02-03T01:06:51.608Z,3.60
2023-02-03T01:09:37.811Z,3.40
2023-02-03T01:12:23.313Z,3.50
2023-02-03T01:15:09.328Z,3.60
2023-02-03T01:17:54.691Z,3.50
2023-02-03T01:20:39.899Z,3.60
2023-02-03T01:23:25.479Z,3.50
2023-02-03T01:26:14.161Z,5.10
2023-02-03T01:29:00.968Z,3.40
2023-02-03T01:31:46.367Z,3.40
2023-02-03T01:34:31.805Z,3.40
2023-02-03T01:37:18.026Z,3.80
2023-02-03T01:40:03.654Z,3.80
2023-02-03T01:42:49.027Z,3.80
2023-02-03T01:45:34.706Z,3.80
2023-02-03T01:48:20.236Z,3.80
2023-02-03T01:51:06.359Z,3.80
2023-02-03T01:53:53.979Z,3.80
2023-02-03T01:56:44.115Z,4.10
2023-02-03T01:59:31.570Z,4.00
2023-02-03T02:02:17.207Z,4.00
2023-02-03T02:05:23.897Z,4.00
2023-02-03T02:08:11.092Z,4.00
2023-02-03T02:10:57.706Z,3.80
2023-02-03T02:13:45.104Z,3.80
2023-02-03T02:16:52.171Z,3.80
2023-02-03T02:19:49.495Z,3.70
2023-02-03T02:23:00.382Z,4.00
2023-02-03T02:25:55.931Z,4.00
2023-02-03T02:29:03.840Z,4.00
2023-02-03T02:31:56.489Z,4.30
2023-02-03T02:35:06.319Z,3.90
2023-02-03T02:38:23.056Z,3.90
2023-02-03T02:41:23.172Z,3.80
2023-02-03T02:44:17.876Z,3.80
2023-02-03T02:47:10.927Z,3.70
2023-02-03T02:50:18.587Z,3.50
2023-02-03T02:53:05.756Z,3.60
2023-02-03T02:55:53.620Z,4.20
2023-02-03T02:58:41.025Z,3.70
2023-02-03T03:01:26.384Z,3.70
2023-02-03T03:04:16.407Z,3.50
2023-02-03T03:07:07.372Z,3.60
2023-02-03T03:10:00.369Z,3.60
2023-02-03T03:12:52.666Z,3.60
2023-02-03T03:15:40.254Z,3.60
2023-02-03T03:18:30.963Z,3.60
2023-02-03T03:21:24.563Z,5.60
2023-02-03T03:24:14.268Z,3.80
2023-02-03T03:27:12.427Z,3.60
2023-02-03T03:30:03.286Z,3.60
2023-02-03T03:32:50.161Z,3.60
2023-02-03T03:35:49.184Z,3.70
2023-02-03T03:38:42.530Z,3.80
2023-02-03T03:41:41.392Z,3.80
2023-02-03T03:44:33.527Z,3.50
2023-02-03T03:47:38.763Z,3.80
2023-02-03T03:50:28.708Z,3.60
2023-02-03T03:53:16.385Z,3.80
2023-02-03T03:56:03.616Z,3.80
2023-02-03T03:58:51.142Z,3.80
2023-02-03T04:01:38.249Z,3.80
2023-02-03T04:04:25.797Z,3.90
2023-02-03T04:07:13.635Z,3.90
2023-02-03T04:09:59.331Z,3.90
2023-02-03T04:12:44.721Z,3.80
2023-02-03T04:15:30.782Z,3.80
2023-02-03T04:18:16.745Z,4.00
2023-02-03T04:21:02.233Z,4.10
2023-02-03T04:23:47.871Z,4.00
2023-02-03T04:26:33.207Z,4.20
2023-02-03T04:29:18.702Z,4.00
2023-02-03T04:32:04.386Z,4.00
2023-02-03T04:34:49.710Z,4.10
2023-02-03T04:37:35.126Z,4.00
2023-02-03T04:40:20.753Z,3.90
2023-02-03T04:43:07.802Z,3.90
2023-02-03T04:45:53.278Z,3.90
2023-02-03T04:48:39.030Z,4.00
2023-02-03T04:51:24.313Z,3.90
2023-02-03T04:54:10.832Z,4.20
2023-02-03T04:56:56.148Z,4.00
2023-02-03T04:59:41.719Z,4.00
2023-02-03T05:02:27.072Z,3.90
2023-02-03T05:05:12.558Z,3.90
2023-02-03T05:07:58.094Z,3.90
2023-02-03T05:10:43.666Z,3.90
2023-02-03T05:13:29.219Z,3.80
2023-02-03T05:16:15.093Z,3.80
2023-02-03T05:19:00.223Z,3.90
2023-02-03T05:21:45.586Z,3.90
2023-02-03T05:24:30.952Z,3.90
2023-02-03T05:27:16.393Z,3.90
2023-02-03T05:30:01.989Z,3.70
2023-02-03T05:32:49.293Z,3.70
2023-02-03T05:35:35.198Z,3.80
2023-02-03T05:38:20.524Z,3.80
2023-02-03T05:41:24.357Z,6.00
2023-02-03T05:44:09.684Z,3.60
2023-02-03T05:46:58.919Z,3.60
2023-02-03T05:49:44.329Z,3.50
2023-02-03T05:52:29.770Z,3.20
2023-02-03T05:55:15.457Z,3.60
2023-02-03T05:58:01.292Z,3.40
2023-02-03T06:00:47.287Z,3.50
2023-02-03T06:03:32.805Z,3.20
2023-02-03T06:06:18.522Z,3.20
2023-02-03T06:09:09.072Z,3.00
2023-02-03T06:11:54.315Z,3.00
2023-02-03T06:14:39.924Z,2.90
2023-02-03T06:17:25.296Z,2.90
2023-02-03T06:20:12.426Z,2.80
2023-02-03T06:22:57.999Z,2.70
2023-02-03T06:25:43.922Z,2.90
2023-02-03T06:28:30.266Z,2.60
2023-02-03T06:31:15.617Z,2.60
2023-02-03T06:34:02.582Z,2.60
2023-02-03T06:36:49.204Z,2.50
2023-02-03T06:39:34.881Z,2.40
2023-02-03T06:42:20.232Z,3.20
2023-02-03T06:45:06.247Z,2.20
2023-02-03T06:47:52.001Z,2.20
2023-02-03T06:50:37.544Z,3.00
2023-02-03T06:53:23.144Z,2.10
2023-02-03T06:56:08.794Z,2.10
2023-02-03T06:58:54.268Z,2.10
2023-02-03T07:01:39.995Z,2.10
2023-02-03T07:04:28.404Z,1.90
2023-02-03T07:07:14.099Z,2.20
2023-02-03T07:09:59.243Z,2.10
2023-02-03T07:12:44.963Z,2.00
2023-02-03T07:15:30.448Z,2.10
2023-02-03T07:18:30.879Z,2.10
2023-02-03T07:21:21.767Z,2.10
2023-02-03T07:24:07.411Z,2.10
2023-02-03T07:26:53.133Z,2.00
2023-02-03T07:29:38.785Z,3.30
2023-02-03T07:32:24.454Z,1.90
2023-02-03T07:35:10.052Z,2.10
2023-02-03T07:37:55.434Z,3.40
2023-02-03T07:40:40.918Z,2.10
2023-02-03T07:43:26.706Z,2.20
2023-02-03T07:46:12.199Z,2.30
2023-02-03T07:48:57.862Z,2.30
2023-02-03T07:51:43.123Z,3.10
2023-02-03T07:54:29.791Z,2.50
2023-02-03T07:57:15.156Z,2.60
2023-02-03T08:00:00.708Z,2.60
2023-02-03T08:02:46.912Z,2.60
2023-02-03T08:05:32.309Z,2.70
2023-02-03T08:08:17.818Z,2.70
2023-02-03T08:11:03.659Z,2.70
2023-02-03T08:13:48.894Z,2.90
2023-02-03T08:16:34.495Z,2.90
2023-02-03T08:19:20.121Z,3.00
2023-02-03T08:22:05.615Z,3.00
2023-02-03T08:24:51.224Z,3.20
2023-02-03T08:27:36.899Z,3.90
2023-02-03T08:30:23.208Z,3.50
2023-02-03T08:33:08.499Z,3.00
2023-02-03T08:35:53.922Z,3.20
2023-02-03T08:38:40.731Z,3.00
2023-02-03T08:41:26.167Z,3.20
2023-02-03T08:44:11.695Z,3.30
2023-02-03T08:46:58.343Z,3.30
2023-02-03T08:49:43.931Z,3.50
2023-02-03T08:52:29.292Z,3.50
2023-02-03T08:55:15.095Z,3.70
2023-02-03T08:58:00.417Z,3.80
2023-02-03T09:00:47.852Z,3.80
2023-02-03T09:03:33.228Z,3.90
2023-02-03T09:06:20.730Z,4.20
2023-02-03T09:09:07.353Z,4.30
2023-02-03T09:11:56.987Z,4.30
2023-02-03T09:14:42.676Z,4.40
2023-02-03T09:17:28.159Z,5.60
2023-02-03T09:20:15.131Z,4.30
2023-02-03T09:23:00.501Z,4.30
2023-02-03T09:25:48.611Z,4.40
2023-02-03T09:28:35.661Z,4.60
2023-02-03T09:31:20.998Z,4.60
2023-02-03T09:34:06.678Z,4.70
2023-02-03T09:36:51.939Z,4.70
2023-02-03T09:39:37.541Z,4.80
2023-02-03T09:42:53.606Z,5.10
2023-02-03T09:45:39.160Z,5.10
2023-02-03T09:48:31.889Z,5.30
2023-02-03T09:51:25.196Z,5.40
2023-02-03T09:54:38.805Z,6.30
2023-02-03T09:57:26.781Z,5.60
2023-02-03T10:00:21.537Z,5.70
2023-02-03T10:03:25.320Z,5.70
2023-02-03T10:06:26.243Z,5.80
2023-02-03T10:09:24.416Z,6.20
2023-02-03T10:12:31.212Z,6.30
2023-02-03T10:15:40.810Z,6.40
2023-02-03T10:18:33.538Z,6.20
2023-02-03T10:21:45.250Z,6.90
2023-02-03T10:24:45.679Z,6.20
2023-02-03T10:27:33.241Z,6.30
2023-02-03T10:30:25.050Z,6.40
2023-02-03T10:33:13.158Z,6.80
2023-02-03T10:36:10.250Z,6.60
2023-02-03T10:39:31.872Z,6.90
2023-02-03T10:42:18.031Z,7.20
2023-02-03T10:45:04.360Z,7.50
2023-02-03T10:47:55.643Z,7.50
2023-02-03T10:50:47.995Z,7.60
2023-02-03T10:53:36.018Z,7.80
2023-02-03T10:56:26.004Z,8.10
2023-02-03T10:59:30.518Z,8.60
2023-02-03T11:02:25.901Z,9.00
2023-02-03T11:05:17.397Z,9.60
2023-02-03T11:08:03.136Z,9.80
2023-02-03T11:10:48.819Z,10.10
2023-02-03T11:13:35.179Z,10.00
2023-02-03T11:16:20.866Z,9.90
2023-02-03T11:19:22.344Z,9.70
2023-02-03T11:22:07.714Z,10.10
2023-02-03T11:24:53.553Z,10.40
2023-02-03T11:27:39.284Z,9.40
2023-02-03T11:30:32.181Z,9.60
2023-02-03T11:33:20.101Z,9.90
2023-02-03T11:36:05.630Z,10.50
2023-02-03T11:38:51.039Z,10.80
2023-02-03T11:41:40.619Z,10.80
2023-02-03T11:44:31.176Z,10.50
2023-02-03T11:47:17.686Z,10.20
2023-02-03T11:50:21.904Z,10.10
2023-02-03T11:53:10.390Z,10.50
2023-02-03T11:56:20.255Z,12.20
2023-02-03T11:59:49.035Z,10.90
2023-02-03T12:02:59.540Z,10.80
2023-02-03T12:05:58.975Z,10.90
2023-02-03T12:09:22.737Z,10.30
2023-02-03T12:12:33.989Z,10.20
2023-02-03T12:15:46.825Z,10.90
2023-02-03T12:18:47.588Z,10.70
2023-02-03T12:21:57.647Z,11.10
2023-02-03T12:24:48.040Z,10.60
2023-02-03T12:28:01.551Z,11.00
2023-02-03T12:30:52.183Z,11.50
2023-02-03T12:33:46.372Z,11.70
2023-02-03T12:36:39.936Z,11.10
2023-02-03T12:39:33.653Z,12.00
2023-02-03T12:42:27.679Z,12.60
2023-02-03T12:45:22.915Z,13.50
2023-02-03T12:48:19.902Z,11.70
2023-02-03T12:51:14.901Z,11.30
2023-02-03T12:54:08.943Z,11.30
2023-02-03T12:56:58.163Z,11.80
2023-02-03T12:59:45.943Z,11.80
2023-02-03T13:02:42.632Z,11.40
2023-02-03T13:05:49.517Z,11.40
2023-02-03T13:08:35.039Z,11.20
2023-02-03T13:11:24.746Z,11.50
2023-02-03T13:14:22.311Z,11.70
2023-02-03T13:17:20.353Z,11.60
2023-02-03T13:20:20.475Z,11.60
2023-02-03T13:23:14.149Z,11.80
2023-02-03T13:26:11.076Z,11.70
2023-02-03T13:29:31.479Z,11.70
2023-02-03T13:32:40.862Z,12.10
2023-02-03T13:35:58.679Z,12.00
2023-02-03T13:39:07.988Z,11.50
2023-02-03T13:42:16.494Z,11.50
2023-02-03T13:45:39.129Z,11.70
2023-02-03T13:48:30.763Z,11.20
2023-02-03T13:51:21.073Z,11.10
2023-02-03T13:54:14.349Z,11.40
2023-02-03T13:57:02.547Z,11.00
2023-02-03T13:59:49.787Z,11.10
2023-02-03T14:02:44.435Z,11.00
2023-02-03T14:05:50.770Z,10.70
2023-02-03T14:08:36.123Z,10.60
2023-02-03T14:11:37.850Z,10.40
2023-02-03T14:14:29.710Z,10.10
2023-02-03T14:17:44.348Z,9.80
2023-02-03T14:20:31.548Z,10.00
2023-02-03T14:23:25.851Z,9.60
2023-02-03T14:26:20.294Z,9.70
2023-02-03T14:29:06.589Z,9.70
2023-02-03T14:32:03.917Z,10.70
2023-02-03T14:34:50.553Z,9.50
2023-02-03T14:37:36.164Z,11.90
2023-02-03T14:40:29.400Z,9.30
2023-02-03T14:43:41.517Z,9.20
2023-02-03T14:46:53.786Z,9.10
2023-02-03T14:49:55.922Z,8.90
2023-02-03T14:53:08.017Z,8.90
2023-02-03T14:56:11.530Z,8.80
2023-02-03T14:59:04.149Z,8.90
2023-02-03T15:01:49.353Z,8.90
2023-02-03T15:04:35.203Z,9.00
2023-02-03T15:07:39.028Z,9.00
2023-02-03T15:10:42.382Z,8.90
2023-02-03T15:13:30.455Z,8.70
2023-02-03T15:16:20.005Z,8.80
2023-02-03T15:19:19.611Z,9.00
2023-02-03T15:22:19.931Z,8.80
2023-02-03T15:25:16.877Z,8.70
2023-02-03T15:28:20.583Z,8.90
2023-02-03T15:31:22.721Z,8.70
2023-02-03T15:34:35.525Z,8.60
2023-02-03T15:37:32.861Z,8.60
2023-02-03T15:40:23.537Z,8.60
2023-02-03T15:43:12.347Z,8.60
2023-02-03T15:46:03.651Z,8.40
2023-02-03T15:48:56.456Z,8.40
2023-02-03T15:51:51.280Z,8.30
2023-02-03T15:54:46.047Z,8.20
2023-02-03T15:57:33.928Z,8.80
2023-02-03T16:00:38.655Z,8.70
2023-02-03T16:03:40.320Z,8.10
2023-02-03T16:06:30.736Z,8.10
2023-02-03T16:09:31.476Z,7.90
2023-02-03T16:12:18.545Z,8.10
2023-02-03T16:15:04.599Z,8.70
2023-02-03T16:17:57.464Z,8.10
2023-02-03T16:20:50.141Z,9.30
2023-02-03T16:23:35.692Z,8.00
2023-02-03T16:26:23.718Z,8.10
2023-02-03T16:29:27.710Z,7.80
2023-02-03T16:32:39.298Z,7.70
2023-02-03T16:35:43.266Z,7.70
2023-02-03T16:38:47.162Z,8.50
2023-02-03T16:41:51.410Z,7.40
2023-02-03T16:44:55.249Z,7.20
2023-02-03T16:48:04.866Z,7.20
2023-02-03T16:50:50.823Z,7.20
2023-02-03T16:53:36.222Z,7.40
2023-02-03T16:56:21.644Z,7.20
2023-02-03T16:59:07.775Z,6.90
2023-02-03T17:01:53.329Z,6.90
2023-02-03T17:04:38.938Z,6.80
2023-02-03T17:07:25.124Z,6.90
2023-02-03T17:10:11.132Z,6.80
2023-02-03T17:12:56.469Z,8.00
2023-02-03T17:15:48.183Z,7.00
2023-02-03T17:18:33.891Z,7.10
2023-02-03T17:21:22.448Z,7.00
2023-02-03T17:24:07.836Z,7.00
2023-02-03T17:26:54.814Z,6.90
2023-02-03T17:29:40.558Z,6.90
2023-02-03T17:32:25.981Z,7.70
2023-02-03T17:35:11.569Z,6.90
2023-02-03T17:37:57.268Z,7.50
2023-02-03T17:55:50.519Z,6.60
2023-02-03T17:58:36.186Z,6.60
2023-02-03T18:01:21.807Z,6.40
2023-02-03T18:04:09.030Z,6.50
2023-02-03T18:06:54.604Z,6.50
2023-02-03T18:09:40.378Z,6.40
2023-02-03T18:12:25.968Z,6.10
2023-02-03T18:15:11.438Z,6.40
2023-02-03T18:17:57.032Z,6.40
2023-02-03T18:20:42.493Z,6.00
2023-02-03T18:23:29.632Z,6.00
2023-02-03T18:26:15.228Z,6.00
2023-02-03T18:29:01.306Z,5.90
2023-02-03T18:31:47.796Z,5.90
2023-02-03T18:34:33.331Z,5.90
2023-02-03T18:37:18.789Z,5.80
2023-02-03T18:40:04.772Z,5.90
2023-02-03T18:42:49.968Z,5.80
2023-02-03T18:45:38.407Z,5.80
2023-02-03T18:48:23.623Z,6.70
2023-02-03T18:51:11.610Z,5.70
2023-02-03T18:53:59.242Z,5.60
2023-02-03T18:56:46.635Z,5.50
2023-02-03T18:59:31.945Z,5.50
2023-02-03T19:02:17.559Z,5.30
2023-02-03T19:05:02.973Z,5.70
2023-02-03T19:07:48.463Z,5.30
2023-02-03T19:10:33.996Z,5.20
2023-02-03T19:13:19.928Z,5.30
2023-02-03T19:16:05.871Z,5.30
2023-02-03T19:18:51.034Z,5.20
2023-02-03T19:21:36.435Z,4.90
2023-02-03T19:24:21.999Z,4.70
2023-02-03T19:27:07.331Z,4.70
2023-02-03T19:29:52.764Z,4.70
2023-02-03T19:32:38.311Z,4.60
2023-02-03T19:35:23.927Z,4.80
2023-02-03T19:38:09.410Z,4.70
2023-02-03T19:40:54.851Z,4.70
2023-02-03T19:43:40.464Z,4.80
2023-02-03T19:46:27.367Z,4.70
2023-02-03T19:49:15.121Z,4.60
2023-02-03T19:52:00.505Z,4.60
2023-02-03T19:54:45.912Z,4.50
2023-02-03T19:57:31.508Z,4.50
2023-02-03T20:00:17.249Z,4.20
2023-02-03T20:03:02.526Z,4.20
2023-02-03T20:05:48.213Z,4.40
2023-02-03T20:08:33.731Z,4.60
2023-02-03T20:11:20.462Z,4.40
2023-02-03T20:14:05.641Z,4.40
2023-02-03T20:16:51.180Z,4.40
2023-02-03T20:19:36.697Z,4.40
2023-02-03T20:22:22.228Z,4.40
2023-02-03T20:25:07.851Z,4.40
2023-02-03T20:27:53.657Z,4.20
2023-02-03T20:30:38.883Z,4.20
2023-02-03T20:33:27.719Z,6.20
2023-02-03T20:36:13.450Z,3.80
2023-02-03T20:38:58.880Z,3.70
2023-02-03T20:41:44.479Z,3.80
2023-02-03T20:44:29.687Z,3.80
2023-02-03T20:47:22.156Z,3.90
2023-02-03T20:50:16.907Z,3.90
2023-02-03T20:53:02.506Z,3.80
2023-02-03T20:55:49.316Z,3.80
2023-02-03T20:58:35.872Z,4.40
2023-02-03T21:01:22.209Z,4.40
2023-02-03T21:04:37.642Z,3.90
2023-02-03T21:07:23.874Z,4.00
2023-02-03T21:10:20.130Z,3.70
2023-02-03T21:13:26.819Z,3.60
2023-02-03T21:16:19.740Z,3.60
2023-02-03T21:19:05.656Z,3.50
2023-02-03T21:21:52.927Z,3.50
2023-02-03T21:24:40.034Z,3.50
2023-02-03T21:27:29.708Z,3.50
2023-02-03T21:30:32.547Z,3.60
2023-02-03T21:33:41.836Z,3.60
2023-02-03T21:36:35.625Z,3.30
2023-02-03T21:39:33.280Z,3.30
2023-02-03T21:42:42.221Z,3.50
2023-02-03T21:45:28.617Z,3.10
2023-02-03T21:48:37.541Z,3.10
2023-02-03T21:51:26.580Z,3.10
2023-02-03T21:54:33.498Z,3.20
2023-02-03T21:57:20.431Z,3.30
2023-02-03T22:00:47.472Z,3.40
2023-02-03T22:03:43.330Z,3.00
2023-02-03T22:06:49.162Z,3.60
2023-02-03T22:09:34.465Z,3.60
2023-02-03T22:12:19.939Z,3.50
2023-02-03T22:15:05.825Z,4.00
2023-02-03T22:17:51.051Z,3.60
2023-02-03T22:20:36.417Z,3.60
2023-02-03T22:23:22.198Z,3.30
2023-02-03T22:26:09.581Z,3.50
2023-02-03T22:28:54.946Z,3.50
2023-02-03T22:31:42.646Z,3.40
2023-02-03T22:34:28.394Z,3.30
2023-02-03T22:37:13.958Z,3.30
2023-02-03T22:39:59.607Z,3.40
2023-02-03T22:42:45.328Z,3.40
2023-02-03T22:45:30.493Z,3.40
2023-02-03T22:48:16.165Z,3.40
2023-02-03T22:51:01.610Z,3.50
2023-02-03T22:53:47.090Z,3.50
2023-02-03T22:56:32.336Z,3.60
2023-02-03T22:59:17.826Z,3.60
2023-02-03T23:02:03.429Z,3.70
2023-02-03T23:04:50.306Z,3.90
2023-02-03T23:07:37.259Z,3.70
2023-02-03T23:10:30.977Z,3.80
2023-02-03T23:13:16.467Z,3.80
2023-02-03T23:16:02.201Z,3.90
2023-02-03T23:18:47.725Z,4.00
2023-02-03T23:21:33.280Z,4.00
2023-02-03T23:24:18.775Z,4.10
2023-02-03T23:27:04.249Z,4.10
2023-02-03T23:29:49.841Z,4.20
2023-02-03T23:32:35.215Z,4.20
2023-02-03T23:35:39.084Z,4.20
2023-02-03T23:38:24.277Z,4.10
2023-02-03T23:41:09.965Z,4.40
2023-02-03T23:43:55.399Z,4.20
2023-02-03T23:46:40.986Z,5.90
2023-02-03T23:49:26.473Z,4.20
2023-02-03T23:52:11.733Z,4.20
2023-02-03T23:54:57.244Z,4.20
2023-02-03T23:57:43.476Z,4.30
